New Pittsburgh, Ohio
Current Conditions -  °F | °C
As of 1:52 PM on Tuesday 27 Jan 2015 (Local Time) from KMFD Reporting Station
Overcast Overcast  
Wind Chill:   Ceiling: 1800
Heat Index: 19°   Visibility: 7mi
Dew Point: 12°   Wind: 12mph
Humidity: 74%   Direction: 320°NW
Pressure: 30.02"   Gusts: NA
Location:  40.9918°N, 82.6827°W
Report Text: KMFD 271852Z 32010KT 7SM OVC018 M07/M11 A3002 RMK AO2 SNE1757B19E32 SLP189 P0000 T10721111
Loading
Personal Weather Stations






























Interactive Weather Map New forecast layout! Learn more

10-Day Weather Forecast

Advertisements
Track Severe Weather on mobile